sensor_id;sensor_type;location;lat;lon;timestamp;pressure;altitude;pressure_sealevel;temperature;humidity
62420;BME280;48460;51.616;5.426;2023-04-01T00:00:08;98994.53;;;8.46;100.00
62420;BME280;48460;51.616;5.426;2023-04-01T00:02:42;98990.00;;;8.48;100.00
62420;BME280;48460;51.616;5.426;2023-04-01T00:05:20;98986.31;;;8.39;100.00
62420;BME280;48460;51.616;5.426;2023-04-01T00:08:08;98990.16;;;8.33;100.00
62420;BME280;48460;51.616;5.426;2023-04-01T00:14:08;99016.00;;;8.51;100.00
62420;BME280;48460;51.616;5.426;2023-04-01T00:20:14;99017.91;;;8.49;100.00
62420;BME280;48460;51.616;5.426;2023-04-01T00:22:40;99014.53;;;8.47;100.00
62420;BME280;48460;51.616;5.426;2023-04-01T00:25:08;99019.16;;;8.43;100.00
62420;BME280;48460;51.616;5.426;2023-04-01T00:27:34;99009.88;;;8.39;100.00
62420;BME280;48460;51.616;5.426;2023-04-01T00:29:59;99017.59;;;8.40;100.00
62420;BME280;48460;51.616;5.426;2023-04-01T00:32:27;99015.38;;;8.47;100.00
62420;BME280;48460;51.616;5.426;2023-04-01T00:35:12;99001.47;;;8.34;100.00
62420;BME280;48460;51.616;5.426;2023-04-01T00:37:44;98996.84;;;8.37;100.00
62420;BME280;48460;51.616;5.426;2023-04-01T00:40:34;99002.91;;;8.38;100.00
62420;BME280;48460;51.616;5.426;2023-04-01T00:47:28;99029.94;;;8.51;100.00
62420;BME280;48460;51.616;5.426;2023-04-01T00:50:32;99014.56;;;8.34;100.00
62420;BME280;48460;51.616;5.426;2023-04-01T00:53:07;99018.97;;;8.33;100.00
62420;BME280;48460;51.616;5.426;2023-04-01T00:55:40;99018.84;;;8.35;100.00
62420;BME280;48460;51.616;5.426;2023-04-01T01:02:12;99021.59;;;8.33;100.00
62420;BME280;48460;51.616;5.426;2023-04-01T01:04:48;99035.94;;;8.40;100.00
62420;BME280;48460;51.616;5.426;2023-04-01T01:16:03;99037.72;;;8.40;100.00
62420;BME280;48460;51.616;5.426;2023-04-01T01:25:24;99054.88;;;8.44;100.00
62420;BME280;48460;51.616;5.426;2023-04-01T01:28:47;99051.66;;;8.40;100.00
62420;BME280;48460;51.616;5.426;2023-04-01T01:31:44;99053.09;;;8.44;100.00
62420;BME280;48460;51.616;5.426;2023-04-01T01:41:27;99060.13;;;8.44;100.00
62420;BME280;48460;51.616;5.426;2023-04-01T01:47:15;99062.25;;;8.39;100.00
62420;BME280;48460;51.616;5.426;2023-04-01T01:49:43;99070.13;;;8.39;100.00
62420;BME280;48460;51.616;5.426;2023-04-01T01:52:32;99071.88;;;8.38;100.00
62420;BME280;48460;51.616;5.426;2023-04-01T01:58:22;99078.69;;;8.41;100.00
62420;BME280;48460;51.616;5.426;2023-04-01T02:00:57;99079.81;;;8.37;100.00
62420;BME280;48460;51.616;5.426;2023-04-01T02:03:25;99079.81;;;8.37;100.00
62420;BME280;48460;51.616;5.426;2023-04-01T02:05:57;99079.81;;;8.37;100.00
62420;BME280;48460;51.616;5.426;2023-04-01T02:11:31;99077.13;;;8.26;100.00
62420;BME280;48460;51.616;5.426;2023-04-01T02:14:41;99079.31;;;8.32;100.00
62420;BME280;48460;51.616;5.426;2023-04-01T02:20:53;99077.34;;;8.22;100.00
62420;BME280;48460;51.616;5.426;2023-04-01T02:23:34;99079.75;;;8.26;100.00
62420;BME280;48460;51.616;5.426;2023-04-01T02:26:15;99079.88;;;8.24;100.00
62420;BME280;48460;51.616;5.426;2023-04-01T02:29:15;99077.34;;;8.22;100.00
62420;BME280;48460;51.616;5.426;2023-04-01T02:32:09;99100.69;;;8.26;100.00
62420;BME280;48460;51.616;5.426;2023-04-01T02:38:02;99101.03;;;8.21;100.00
62420;BME280;48460;51.616;5.426;2023-04-01T02:40:40;99102.09;;;8.18;100.00
62420;BME280;48460;51.616;5.426;2023-04-01T02:43:41;99098.63;;;8.18;100.00
62420;BME280;48460;51.616;5.426;2023-04-01T02:46:07;99110.38;;;8.12;100.00
62420;BME280;48460;51.616;5.426;2023-04-01T02:48:34;99106.06;;;8.11;100.00
62420;BME280;48460;51.616;5.426;2023-04-01T02:51:04;99094.13;;;8.07;100.00
62420;BME280;48460;51.616;5.426;2023-04-01T02:53:43;99101.16;;;8.07;100.00
62420;BME280;48460;51.616;5.426;2023-04-01T03:00:06;99113.19;;;8.09;100.00
62420;BME280;48460;51.616;5.426;2023-04-01T03:02:46;99109.22;;;8.04;100.00
62420;BME280;48460;51.616;5.426;2023-04-01T03:05:18;99103.56;;;7.97;100.00
62420;BME280;48460;51.616;5.426;2023-04-01T03:11:04;99099.06;;;7.99;100.00
62420;BME280;48460;51.616;5.426;2023-04-01T03:13:40;99112.88;;;8.01;100.00
62420;BME280;48460;51.616;5.426;2023-04-01T03:16:28;99101.16;;;7.94;100.00
62420;BME280;48460;51.616;5.426;2023-04-01T03:18:56;99117.28;;;8.01;100.00
62420;BME280;48460;51.616;5.426;2023-04-01T03:22:10;99126.16;;;8.11;100.00
62420;BME280;48460;51.616;5.426;2023-04-01T03:24:54;99118.13;;;8.01;100.00
62420;BME280;48460;51.616;5.426;2023-04-01T03:34:10;99120.81;;;7.99;100.00
62420;BME280;48460;51.616;5.426;2023-04-01T03:37:06;99115.59;;;7.99;100.00
62420;BME280;48460;51.616;5.426;2023-04-01T03:39:44;99140.44;;;8.07;100.00
62420;BME280;48460;51.616;5.426;2023-04-01T03:42:29;99118.34;;;7.98;100.00
62420;BME280;48460;51.616;5.426;2023-04-01T03:45:21;99127.22;;;7.95;100.00
